createdAt,value
2017-07-21T06:27:15.599Z,376
2017-07-21T06:28:12.780Z,376
2017-07-21T06:29:12.840Z,388
2017-07-21T06:30:12.898Z,404
2017-07-21T06:31:12.960Z,416
2017-07-21T06:32:13.172Z,420
2017-07-21T06:33:13.067Z,424
2017-07-21T06:34:13.112Z,432
2017-07-21T06:35:13.164Z,436
2017-07-21T06:36:13.222Z,436
2017-07-21T06:37:13.281Z,424
2017-07-21T06:38:13.334Z,420
2017-07-21T06:39:13.101Z,412
2017-07-21T06:40:13.461Z,412
2017-07-21T06:41:13.506Z,404
2017-07-21T06:42:13.569Z,388
2017-07-21T06:43:13.613Z,384
2017-07-21T06:44:13.375Z,372
2017-07-21T06:45:13.415Z,372
2017-07-21T06:46:13.797Z,372
2017-07-21T06:47:13.834Z,376
2017-07-21T06:48:13.893Z,372
2017-07-21T06:49:13.953Z,372
2017-07-21T06:50:13.997Z,372
2017-07-21T06:51:14.057Z,368
2017-07-21T06:52:14.109Z,372
2017-07-21T06:53:13.867Z,376
2017-07-21T06:54:14.216Z,376
2017-07-21T06:55:14.270Z,380
2017-07-21T06:56:14.340Z,380
2017-07-21T06:57:14.378Z,384
2017-07-21T06:58:14.438Z,380
2017-07-21T06:59:14.493Z,384
2017-07-21T07:00:14.550Z,384
2017-07-21T07:01:14.305Z,388
2017-07-21T07:02:14.658Z,388
2017-07-21T07:03:14.716Z,388
2017-07-21T07:04:14.775Z,392
2017-07-21T07:05:14.836Z,388
2017-07-21T07:06:14.877Z,392
2017-07-21T07:07:14.944Z,392
2017-07-21T07:08:14.984Z,396
2017-07-21T07:09:14.741Z,396
2017-07-21T07:10:15.100Z,400
2017-07-21T07:11:15.164Z,400
2017-07-21T07:12:15.215Z,404
2017-07-21T07:13:15.270Z,408
2017-07-21T07:14:15.318Z,412
2017-07-21T07:15:15.366Z,416
2017-07-21T07:16:15.434Z,416
2017-07-21T07:17:14.890Z,416
2017-07-21T07:18:15.541Z,416
2017-07-21T07:19:15.601Z,416
2017-07-21T07:20:15.658Z,416
2017-07-21T07:21:15.709Z,416
2017-07-21T07:22:15.771Z,416
2017-07-21T07:23:15.807Z,424
2017-07-21T07:24:15.260Z,424
2017-07-21T07:25:15.935Z,420
2017-07-21T07:26:15.985Z,420
2017-07-21T07:27:16.046Z,420
2017-07-21T07:28:16.091Z,424
2017-07-21T07:29:16.148Z,424
2017-07-21T07:30:16.201Z,428
2017-07-21T07:31:16.252Z,428
2017-07-21T07:32:16.015Z,428
2017-07-21T07:33:16.374Z,428
2017-07-21T07:34:16.425Z,428
2017-07-21T07:35:16.472Z,432
2017-07-21T07:36:16.541Z,432
2017-07-21T07:37:16.595Z,428
2017-07-21T07:38:16.655Z,432
2017-07-21T07:39:16.400Z,432
2017-07-21T07:40:16.475Z,436
2017-07-21T07:41:16.813Z,436
2017-07-21T07:42:16.865Z,436
2017-07-21T07:43:16.919Z,436
2017-07-21T07:44:16.974Z,440
2017-07-21T07:45:17.020Z,440
2017-07-21T07:46:17.090Z,444
2017-07-21T07:47:17.139Z,444
2017-07-21T07:48:17.193Z,444
2017-07-21T07:49:17.254Z,444
2017-07-21T07:50:17.314Z,448
2017-07-21T07:51:16.756Z,452
2017-07-21T07:52:17.404Z,452
2017-07-21T07:53:17.476Z,452
2017-07-21T07:54:17.220Z,456
2017-07-21T07:55:17.282Z,456
2017-07-21T07:56:17.343Z,456
2017-07-21T07:57:17.691Z,460
2017-07-21T07:58:17.749Z,464
2017-07-21T07:59:17.805Z,464
2017-07-21T08:00:17.855Z,468
2017-07-21T08:01:17.616Z,468
2017-07-21T08:02:17.975Z,468
2017-07-21T08:03:18.020Z,476
2017-07-21T08:04:18.081Z,476
2017-07-21T08:05:18.134Z,476
2017-07-21T08:06:18.188Z,476
2017-07-21T08:07:18.238Z,484
2017-07-21T08:08:18.298Z,484
2017-07-21T08:09:18.349Z,484
2017-07-21T08:10:18.397Z,488
2017-07-21T08:11:18.157Z,488
2017-07-21T08:12:18.203Z,492
2017-07-21T08:13:17.962Z,496
2017-07-21T08:14:18.628Z,500
2017-07-21T08:15:18.681Z,500
2017-07-21T08:16:18.735Z,500
2017-07-21T08:17:18.791Z,504
2017-07-21T08:18:18.848Z,504
2017-07-21T08:19:18.910Z,512
2017-07-21T08:20:18.954Z,512
2017-07-21T08:21:19.009Z,516
2017-07-21T08:22:19.062Z,516
2017-07-21T08:23:19.128Z,516
2017-07-21T08:24:19.176Z,520
2017-07-21T08:25:19.237Z,520
2017-07-21T08:26:19.496Z,524
2017-07-21T08:27:19.352Z,528
2017-07-21T08:28:19.401Z,532
2017-07-21T08:29:19.455Z,532
2017-07-21T08:30:19.514Z,536
2017-07-21T08:31:19.565Z,540
2017-07-21T08:32:19.520Z,540
2017-07-21T08:33:19.676Z,544
2017-07-21T08:34:19.719Z,544
2017-07-21T08:35:19.489Z,548
2017-07-21T08:36:19.837Z,548
2017-07-21T08:37:19.901Z,552
2017-07-21T08:38:19.950Z,556
2017-07-21T08:39:20.004Z,556
2017-07-21T08:40:20.063Z,560
2017-07-21T08:41:19.817Z,564
2017-07-21T08:42:19.870Z,564
2017-07-21T08:43:20.227Z,568
2017-07-21T08:44:20.289Z,572
2017-07-21T08:45:20.333Z,572
2017-07-21T08:46:20.390Z,576
2017-07-21T08:47:20.461Z,580
2017-07-21T08:48:20.504Z,584
2017-07-21T08:49:20.551Z,588
2017-07-21T08:50:20.610Z,588
2017-07-21T08:51:20.694Z,592
2017-07-21T08:52:20.724Z,596
2017-07-21T08:53:20.775Z,604
2017-07-21T08:54:20.854Z,608
2017-07-21T08:55:20.876Z,608
2017-07-21T08:56:20.949Z,608
2017-07-21T08:57:20.988Z,608
2017-07-21T08:58:21.052Z,612
2017-07-21T08:59:21.106Z,616
2017-07-21T09:00:21.160Z,624
2017-07-21T09:01:21.216Z,624
2017-07-21T09:02:21.272Z,628
2017-07-21T09:03:21.329Z,632
2017-07-21T09:04:21.385Z,632
2017-07-21T09:05:21.441Z,632
2017-07-21T09:06:21.497Z,636
2017-07-21T09:07:21.553Z,640
2017-07-21T09:08:21.605Z,640
2017-07-21T09:09:21.354Z,644
2017-07-21T09:10:21.717Z,648
2017-07-21T09:11:21.777Z,648
2017-07-21T09:12:21.816Z,648
2017-07-21T09:13:21.886Z,656
2017-07-21T09:14:21.930Z,656
2017-07-21T09:15:21.680Z,660
2017-07-21T09:16:22.037Z,664
2017-07-21T09:17:22.100Z,664
2017-07-21T09:18:22.144Z,668
2017-07-21T09:19:22.218Z,672
2017-07-21T09:20:22.269Z,676
2017-07-21T09:21:22.321Z,676
2017-07-21T09:22:22.374Z,676
2017-07-21T09:23:22.430Z,672
2017-07-21T09:24:22.489Z,688
2017-07-21T09:25:22.551Z,692
2017-07-21T09:26:22.604Z,692
2017-07-21T09:27:22.645Z,696
2017-07-21T09:28:22.711Z,700
2017-07-21T09:29:22.467Z,700
2017-07-21T09:30:22.813Z,708
2017-07-21T09:31:22.570Z,712
2017-07-21T09:32:22.627Z,712
2017-07-21T09:33:22.985Z,716
2017-07-21T09:34:23.041Z,720
2017-07-21T09:35:23.101Z,720
2017-07-21T09:36:23.163Z,724
2017-07-21T09:37:23.209Z,728
2017-07-21T09:38:23.268Z,728
2017-07-21T09:39:23.310Z,736
2017-07-21T09:40:23.380Z,740
2017-07-21T09:41:23.635Z,740
2017-07-21T09:42:23.383Z,744
2017-07-21T09:43:23.529Z,748
2017-07-21T09:44:23.585Z,748
2017-07-21T09:45:23.654Z,756
2017-07-21T09:46:37.341Z,760
2017-07-21T09:47:37.384Z,760
2017-07-21T09:48:24.013Z,764
2017-07-21T09:49:38.499Z,768
2017-07-21T09:50:23.920Z,772
2017-07-21T09:51:23.986Z,772
2017-07-21T09:52:37.612Z,776
2017-07-21T09:53:23.990Z,784
2017-07-21T09:54:24.143Z,784
2017-07-21T09:55:23.906Z,784
2017-07-21T09:56:23.953Z,788
2017-07-21T09:57:24.316Z,796
2017-07-21T09:58:24.368Z,796
2017-07-21T09:59:24.421Z,796
2017-07-21T10:00:24.487Z,804
2017-07-21T10:01:24.524Z,812
2017-07-21T10:02:24.579Z,812
2017-07-21T10:03:24.357Z,816
2017-07-21T10:04:24.700Z,820
2017-07-21T10:05:24.766Z,824
2017-07-21T10:06:24.505Z,828
2017-07-21T10:07:24.867Z,832
2017-07-21T10:08:24.620Z,836
2017-07-21T10:09:24.973Z,836
2017-07-21T10:10:25.027Z,840
2017-07-21T10:11:25.083Z,844
2017-07-21T10:12:24.841Z,848
2017-07-21T10:13:24.890Z,852
2017-07-21T10:14:25.243Z,852
2017-07-21T10:15:25.313Z,860
2017-07-21T10:16:25.359Z,864
2017-07-21T10:17:25.432Z,864
2017-07-21T10:18:25.479Z,868
2017-07-21T10:19:25.520Z,868
2017-07-21T10:20:25.587Z,872
2017-07-21T10:21:25.636Z,880
2017-07-21T10:22:25.392Z,848
2017-07-21T10:23:25.951Z,892
2017-07-21T10:24:25.806Z,896
2017-07-21T10:25:25.866Z,896
2017-07-21T10:26:25.620Z,896
2017-07-21T10:27:25.962Z,900
2017-07-21T10:28:26.226Z,904
2017-07-21T10:29:26.105Z,908
2017-07-21T10:30:26.150Z,912
2017-07-21T10:31:25.885Z,916
2017-07-21T10:32:26.245Z,916
2017-07-21T10:33:39.939Z,920
2017-07-21T10:34:26.361Z,928
2017-07-21T10:35:27.591Z,936
2017-07-21T10:36:26.172Z,928
2017-07-21T10:37:26.522Z,936
2017-07-21T10:38:26.273Z,944
2017-07-21T10:39:26.629Z,956
2017-07-21T10:40:26.699Z,956
2017-07-21T10:41:26.739Z,956
2017-07-21T10:42:26.811Z,980
2017-07-21T10:43:26.254Z,924
2017-07-21T10:44:26.912Z,952
2017-07-21T10:45:26.665Z,952
2017-07-21T10:46:27.017Z,964
2017-07-21T10:47:27.088Z,980
2017-07-21T10:48:27.133Z,472
2017-07-21T10:49:27.193Z,972
2017-07-21T10:50:27.252Z,976
2017-07-21T10:51:27.308Z,976
2017-07-21T10:52:27.359Z,976
2017-07-21T10:53:27.111Z,976
2017-07-21T10:54:27.467Z,984
2017-07-21T10:55:27.524Z,988
2017-07-21T10:56:27.582Z,988
2017-07-21T10:57:27.624Z,996
2017-07-21T10:58:27.682Z,1008
2017-07-21T10:59:27.457Z,1024
2017-07-21T11:00:27.787Z,1016
2017-07-21T11:01:27.860Z,1044
2017-07-21T11:02:27.905Z,1048
2017-07-21T11:03:42.318Z,1056
2017-07-21T11:04:28.013Z,1024
2017-07-21T11:05:28.071Z,1024
2017-07-21T11:06:28.132Z,1028
2017-07-21T11:07:28.410Z,892
2017-07-21T11:08:28.470Z,852
2017-07-21T11:09:28.312Z,1140
2017-07-21T11:10:28.355Z,780
2017-07-21T11:11:28.092Z,1044
2017-07-21T11:12:28.474Z,1092
2017-07-21T11:13:28.433Z,1016
2017-07-21T11:14:28.768Z,1332
2017-07-21T11:15:28.315Z,848
2017-07-21T11:16:28.686Z,1000
2017-07-21T11:17:28.740Z,1028
2017-07-21T11:18:28.801Z,652
2017-07-21T11:19:28.572Z,744
2017-07-21T11:20:28.901Z,1152
2017-07-21T11:21:28.955Z,1012
2017-07-21T11:22:29.018Z,780
2017-07-21T11:23:29.076Z,788
2017-07-21T11:24:29.131Z,840
2017-07-21T11:25:29.192Z,684
2017-07-21T11:26:29.225Z,696
2017-07-21T11:27:29.285Z,716
2017-07-21T11:28:29.358Z,768
2017-07-21T11:29:29.408Z,832
2017-07-21T11:30:29.467Z,704
2017-07-21T11:31:29.516Z,524
2017-07-21T11:32:29.587Z,492
2017-07-21T11:33:29.631Z,608
2017-07-21T11:34:29.673Z,1000
2017-07-21T11:35:29.730Z,912
2017-07-21T11:36:29.793Z,540
2017-07-21T11:37:29.534Z,576
2017-07-21T11:38:29.601Z,772
2017-07-21T11:39:29.956Z,876
2017-07-21T11:40:29.700Z,996
2017-07-21T11:41:30.083Z,1128
2017-07-21T11:42:29.811Z,1232
2017-07-21T11:43:30.194Z,1384
2017-07-21T11:44:30.233Z,712
2017-07-21T11:45:30.296Z,424
2017-07-21T11:46:30.342Z,360
2017-07-21T11:47:44.026Z,312
2017-07-21T11:48:30.356Z,288
2017-07-21T11:49:30.211Z,292
2017-07-21T11:50:30.577Z,332
2017-07-21T11:51:30.614Z,384
2017-07-21T11:52:30.666Z,596
2017-07-21T11:53:30.722Z,676
2017-07-21T11:54:30.998Z,624
2017-07-21T11:55:30.853Z,572
2017-07-21T11:56:30.910Z,536
2017-07-21T11:57:30.974Z,556
2017-07-21T11:58:31.000Z,560
2017-07-21T11:59:31.069Z,500
2017-07-21T12:00:30.823Z,472
2017-07-21T12:01:30.874Z,404
2017-07-21T12:02:31.232Z,396
2017-07-21T12:03:31.293Z,500
2017-07-21T12:04:31.040Z,660
2017-07-21T12:05:31.095Z,524
2017-07-21T12:06:31.461Z,464
2017-07-21T12:07:31.517Z,388
2017-07-21T12:08:31.568Z,344
2017-07-21T12:09:31.616Z,308
2017-07-21T12:10:31.677Z,292
2017-07-21T12:11:31.735Z,264
2017-07-21T12:12:31.794Z,228
2017-07-21T12:13:31.840Z,196
2017-07-21T12:14:31.906Z,184
2017-07-21T12:15:31.944Z,180
2017-07-21T12:16:32.017Z,188
2017-07-21T12:17:32.070Z,184
2017-07-21T12:18:32.124Z,188
2017-07-21T12:19:32.177Z,184
2017-07-21T12:20:32.233Z,188
2017-07-21T12:21:32.293Z,184
2017-07-21T12:22:32.346Z,192
2017-07-21T12:23:32.091Z,196
2017-07-21T12:24:32.460Z,196
2017-07-21T12:25:32.197Z,184
2017-07-21T12:26:32.559Z,172
2017-07-21T12:27:32.820Z,164
2017-07-21T12:28:32.880Z,148
2017-07-21T12:29:32.424Z,132
2017-07-21T12:30:32.778Z,128
2017-07-21T12:31:32.536Z,116
2017-07-21T12:32:32.595Z,120
2017-07-21T12:33:33.176Z,136
2017-07-21T12:34:33.029Z,148
2017-07-21T12:35:33.064Z,140
2017-07-21T12:36:33.108Z,124
2017-07-21T12:37:33.194Z,112
2017-07-21T12:38:33.223Z,104
2017-07-21T12:39:33.279Z,100
2017-07-21T12:40:33.325Z,92
2017-07-21T12:41:33.412Z,68
2017-07-21T12:42:33.140Z,52
2017-07-21T12:43:33.511Z,40
2017-07-21T12:44:33.558Z,32
2017-07-21T12:45:33.612Z,28
2017-07-21T12:46:33.668Z,24
2017-07-21T12:47:33.416Z,24
2017-07-21T12:48:33.773Z,32
2017-07-21T12:49:33.837Z,48
2017-07-21T12:50:33.884Z,88
2017-07-21T12:51:33.940Z,156
2017-07-21T12:52:33.996Z,192
2017-07-21T12:53:34.050Z,208
2017-07-21T12:54:34.102Z,196
2017-07-21T12:55:34.161Z,192
2017-07-21T12:56:33.915Z,180
2017-07-21T12:57:34.271Z,184
2017-07-21T12:58:34.332Z,188
2017-07-21T12:59:34.381Z,184
2017-07-21T13:00:34.129Z,184
2017-07-21T13:01:34.503Z,184
2017-07-21T13:02:34.242Z,184
2017-07-21T13:03:34.299Z,188
2017-07-21T13:04:34.381Z,192
2017-07-21T13:05:34.718Z,216
2017-07-21T13:06:34.764Z,224
2017-07-21T13:07:34.827Z,200
2017-07-21T13:08:34.882Z,208
2017-07-21T13:09:34.933Z,188
2017-07-21T13:10:34.996Z,152
2017-07-21T13:11:35.047Z,112
2017-07-21T13:12:35.099Z,88
2017-07-21T13:13:35.152Z,72
2017-07-21T13:14:35.206Z,64
2017-07-21T13:15:35.264Z,52
2017-07-21T13:16:35.322Z,44
2017-07-21T13:17:35.363Z,44
2017-07-21T13:18:35.125Z,44
2017-07-21T13:19:35.477Z,48
2017-07-21T13:20:35.527Z,48
2017-07-21T13:21:35.582Z,56
2017-07-21T13:22:35.660Z,64
2017-07-21T13:23:35.701Z,80
2017-07-21T13:24:35.745Z,96
2017-07-21T13:25:35.823Z,108
2017-07-21T13:26:35.873Z,124
2017-07-21T13:27:35.621Z,136
2017-07-21T13:28:35.671Z,148
2017-07-21T13:29:36.025Z,160
2017-07-21T13:30:36.083Z,172
2017-07-21T13:31:36.135Z,184
2017-07-21T13:32:36.191Z,196
2017-07-21T13:33:36.241Z,216
2017-07-21T13:34:36.307Z,236
2017-07-21T13:35:36.364Z,260
2017-07-21T13:36:36.415Z,268
2017-07-21T13:37:36.468Z,284
2017-07-21T13:38:36.517Z,320
2017-07-21T13:39:36.570Z,348
2017-07-21T13:40:36.617Z,372
2017-07-21T13:41:36.690Z,404
2017-07-21T13:42:36.735Z,432
2017-07-21T13:43:36.489Z,484
2017-07-21T13:44:36.844Z,528
2017-07-21T13:45:36.908Z,556
2017-07-21T13:46:36.969Z,560
2017-07-21T13:47:37.013Z,588
2017-07-21T13:48:37.067Z,608
2017-07-21T13:49:37.134Z,640
2017-07-21T13:50:37.188Z,684
2017-07-21T13:51:37.233Z,784
2017-07-21T13:52:37.287Z,844
2017-07-21T13:53:37.343Z,904
2017-07-21T13:54:37.403Z,896
2017-07-21T13:55:37.453Z,1052
2017-07-21T13:56:37.501Z,1000
2017-07-21T13:57:37.251Z,832
2017-07-21T13:58:37.607Z,960
2017-07-21T13:59:37.066Z,768
2017-07-21T14:00:37.735Z,660
2017-07-21T14:01:37.778Z,644
2017-07-21T14:02:37.841Z,440
2017-07-21T14:03:37.897Z,404
2017-07-21T14:04:37.945Z,352
2017-07-21T14:05:38.030Z,344
2017-07-21T14:06:38.063Z,332
2017-07-21T14:07:38.109Z,316
2017-07-21T14:08:38.156Z,296
2017-07-21T14:09:38.225Z,284
2017-07-21T14:10:38.267Z,256
2017-07-21T14:11:38.329Z,240
2017-07-21T14:12:38.377Z,252
2017-07-21T14:13:38.440Z,300
2017-07-21T14:14:38.502Z,336
2017-07-21T14:15:38.548Z,340
2017-07-21T14:16:38.608Z,336
2017-07-21T14:17:38.656Z,324
2017-07-21T14:18:38.714Z,296
2017-07-21T14:19:38.761Z,268
2017-07-21T14:20:38.827Z,252
2017-07-21T14:21:38.871Z,244
2017-07-21T14:22:38.937Z,244
2017-07-21T14:23:38.980Z,252
2017-07-21T14:24:39.031Z,256
2017-07-21T14:25:39.092Z,268
2017-07-21T14:26:38.868Z,284
2017-07-21T14:27:39.206Z,284
2017-07-21T14:28:39.255Z,252
2017-07-21T14:29:38.722Z,244
2017-07-21T14:30:39.074Z,236
2017-07-21T14:31:39.421Z,248
2017-07-21T14:32:39.481Z,260
2017-07-21T14:33:39.560Z,256
2017-07-21T14:34:39.597Z,264
2017-07-21T14:35:39.650Z,324
2017-07-21T14:36:39.706Z,336
2017-07-21T14:37:39.754Z,320
2017-07-21T14:38:39.820Z,284
2017-07-21T14:39:39.862Z,252
2017-07-21T14:40:39.926Z,236
2017-07-21T14:41:39.975Z,220
2017-07-21T14:42:40.035Z,188
2017-07-21T14:43:40.103Z,164
2017-07-21T14:44:40.142Z,136
2017-07-21T14:45:40.208Z,116
2017-07-21T14:46:40.251Z,108
2017-07-21T14:47:40.309Z,100
2017-07-21T14:48:40.369Z,96
2017-07-21T14:49:40.422Z,108
2017-07-21T14:50:40.478Z,104
2017-07-21T14:51:40.529Z,96
2017-07-21T14:52:40.597Z,88
2017-07-21T14:53:40.651Z,80
2017-07-21T14:54:40.694Z,72
2017-07-21T14:55:40.751Z,72
2017-07-21T14:56:40.802Z,84
2017-07-21T14:57:40.869Z,96
2017-07-21T14:58:40.930Z,100
2017-07-21T14:59:40.975Z,104
2017-07-21T15:00:41.049Z,108
2017-07-21T15:01:41.089Z,112
2017-07-21T15:02:41.145Z,120
2017-07-21T15:03:41.193Z,124
2017-07-21T15:04:41.254Z,128
2017-07-21T15:05:41.309Z,124
2017-07-21T15:06:41.364Z,124
2017-07-21T15:07:41.104Z,116
2017-07-21T15:08:41.467Z,116
2017-07-21T15:09:41.530Z,112
2017-07-21T15:10:41.275Z,112
2017-07-21T15:11:41.637Z,112
2017-07-21T15:12:41.697Z,112
2017-07-21T15:13:41.745Z,108
2017-07-21T15:14:41.795Z,104
2017-07-21T15:15:41.856Z,100
2017-07-21T15:16:41.917Z,92
2017-07-21T15:17:41.964Z,84
2017-07-21T15:18:42.021Z,76
2017-07-21T15:19:42.081Z,80
2017-07-21T15:20:42.128Z,84
2017-07-21T15:21:42.195Z,88
2017-07-21T15:22:42.286Z,96
2017-07-21T15:23:42.305Z,100
2017-07-21T15:24:42.359Z,104
2017-07-21T15:25:42.416Z,104
2017-07-21T15:26:42.475Z,104
2017-07-21T15:27:42.524Z,100
2017-07-21T15:28:42.581Z,100
2017-07-21T15:29:42.633Z,96
2017-07-21T15:30:42.682Z,88
2017-07-21T15:31:42.750Z,84
2017-07-21T15:32:42.801Z,88
2017-07-21T15:33:42.853Z,84
2017-07-21T15:34:42.911Z,76
2017-07-21T15:35:42.964Z,72
2017-07-21T15:36:43.021Z,68
2017-07-21T15:37:43.070Z,64
2017-07-21T15:38:43.131Z,64
2017-07-21T15:39:42.881Z,64
2017-07-21T15:40:42.942Z,68
2017-07-21T15:41:43.298Z,76
2017-07-21T15:42:43.363Z,76
2017-07-21T15:43:43.421Z,76
2017-07-21T15:44:43.158Z,80
2017-07-21T15:45:43.522Z,80
2017-07-21T15:46:43.575Z,84
2017-07-21T15:47:43.636Z,92
2017-07-21T15:48:43.680Z,100
2017-07-21T15:49:43.733Z,108
2017-07-21T15:50:43.795Z,120
2017-07-21T15:51:43.854Z,132
2017-07-21T15:52:43.906Z,148
2017-07-21T15:53:43.965Z,152
2017-07-21T15:54:44.021Z,164
2017-07-21T15:55:44.069Z,168
2017-07-21T15:56:44.130Z,168
2017-07-21T15:57:44.187Z,172
2017-07-21T15:58:44.236Z,176
2017-07-21T15:59:44.300Z,180
2017-07-21T16:00:44.359Z,184
2017-07-21T16:01:44.104Z,192
2017-07-21T16:02:44.465Z,192
2017-07-21T16:03:44.525Z,180
2017-07-21T16:04:44.583Z,164
2017-07-21T16:05:44.637Z,168
2017-07-21T16:06:44.685Z,188
2017-07-21T16:07:44.740Z,208
2017-07-21T16:08:44.794Z,224
2017-07-21T16:09:44.857Z,236
2017-07-21T16:10:44.930Z,248
2017-07-21T16:11:44.969Z,248
2017-07-21T16:12:45.027Z,260
2017-07-21T16:13:45.079Z,256
2017-07-21T16:14:45.132Z,232
2017-07-21T16:15:44.883Z,228
2017-07-21T16:16:45.236Z,224
2017-07-21T16:17:45.297Z,220
2017-07-21T16:18:45.344Z,216
2017-07-21T16:19:45.401Z,212
2017-07-21T16:20:45.453Z,204
2017-07-21T16:21:45.211Z,204
2017-07-21T16:22:45.568Z,200
2017-07-21T16:23:45.630Z,200
2017-07-21T16:24:45.678Z,196
2017-07-21T16:25:45.735Z,196
2017-07-21T16:26:45.787Z,188
2017-07-21T16:27:45.844Z,176
2017-07-21T16:28:45.595Z,176
2017-07-21T16:29:45.960Z,176
2017-07-21T16:30:46.012Z,168
2017-07-21T16:31:46.065Z,164
2017-07-21T16:32:45.812Z,164
2017-07-21T16:33:46.177Z,156
2017-07-21T16:34:46.227Z,152
2017-07-21T16:35:45.972Z,140
2017-07-21T16:36:46.342Z,132
2017-07-21T16:37:46.387Z,128
2017-07-21T16:38:46.142Z,124
2017-07-21T16:39:46.499Z,124
2017-07-21T16:40:46.558Z,120
2017-07-21T16:41:46.297Z,112
2017-07-21T16:42:46.670Z,116
2017-07-21T16:43:46.731Z,120
2017-07-21T16:44:46.770Z,124
2017-07-21T16:45:46.827Z,124
2017-07-21T16:46:46.891Z,124
2017-07-21T16:47:46.944Z,120
2017-07-21T16:48:46.993Z,124
2017-07-21T16:49:47.052Z,120
2017-07-21T16:50:47.130Z,120
2017-07-21T16:51:47.158Z,120
2017-07-21T16:52:47.210Z,120
2017-07-21T16:53:47.277Z,120
2017-07-21T16:54:47.333Z,124
2017-07-21T16:55:47.378Z,128
2017-07-21T16:56:47.440Z,124
2017-07-21T16:57:47.193Z,128
2017-07-21T16:58:47.533Z,124
2017-07-21T16:59:47.598Z,124
2017-07-21T17:00:47.655Z,120
2017-07-21T17:01:47.401Z,112
2017-07-21T17:02:47.766Z,96
2017-07-21T17:03:47.817Z,92
2017-07-21T17:04:47.870Z,88
2017-07-21T17:05:47.940Z,92
2017-07-21T17:06:47.985Z,88
2017-07-21T17:07:48.050Z,88
2017-07-21T17:08:48.084Z,84
2017-07-21T17:09:48.151Z,84
2017-07-21T17:10:48.206Z,84
2017-07-21T17:11:48.264Z,84
2017-07-21T17:12:48.311Z,88
2017-07-21T17:13:48.368Z,92
2017-07-21T17:14:48.426Z,100
2017-07-21T17:15:48.482Z,112
2017-07-21T17:16:48.566Z,116
2017-07-21T17:17:48.597Z,120
2017-07-21T17:18:48.655Z,124
2017-07-21T17:19:48.405Z,128
2017-07-21T17:20:48.766Z,124
2017-07-21T17:21:48.810Z,124
2017-07-21T17:22:48.865Z,120
2017-07-21T17:23:48.631Z,116
2017-07-21T17:24:48.974Z,112
2017-07-21T17:25:49.024Z,112
2017-07-21T17:26:48.785Z,108
2017-07-21T17:27:49.137Z,104
2017-07-21T17:28:49.221Z,100
2017-07-21T17:29:49.252Z,96
2017-07-21T17:30:49.313Z,96
2017-07-21T17:31:49.370Z,96
2017-07-21T17:32:49.422Z,92
2017-07-21T17:33:49.482Z,92
2017-07-21T17:34:49.524Z,88
2017-07-21T17:35:49.591Z,84
2017-07-21T17:36:49.642Z,84
2017-07-21T17:37:49.697Z,84
2017-07-21T17:38:49.761Z,80
2017-07-21T17:39:49.806Z,84
2017-07-21T17:40:49.862Z,80
2017-07-21T17:41:49.913Z,80
2017-07-21T17:42:49.980Z,76
2017-07-21T17:43:50.040Z,76
2017-07-21T17:44:50.099Z,72
2017-07-21T17:45:50.142Z,72
2017-07-21T17:46:49.886Z,72
2017-07-21T17:47:50.279Z,68
2017-07-21T17:48:50.307Z,68
2017-07-21T17:49:50.054Z,68
2017-07-21T17:50:50.424Z,60
2017-07-21T17:51:50.474Z,64
2017-07-21T17:52:50.533Z,60
2017-07-21T17:53:50.579Z,60
2017-07-21T17:54:50.638Z,56
2017-07-21T17:55:50.707Z,56
2017-07-21T17:56:50.746Z,52
2017-07-21T17:57:50.496Z,52
2017-07-21T17:58:50.861Z,52
2017-07-21T17:59:50.911Z,48
2017-07-21T18:00:50.968Z,52
2017-07-21T18:01:51.031Z,48
2017-07-21T18:02:51.090Z,48
2017-07-21T18:03:51.133Z,44
2017-07-21T18:04:51.204Z,44
2017-07-21T18:05:51.250Z,44
2017-07-21T18:06:51.314Z,40
2017-07-21T18:07:51.361Z,44
2017-07-21T18:08:51.117Z,40
2017-07-21T18:09:51.474Z,40
2017-07-21T18:10:51.523Z,40
2017-07-21T18:11:51.588Z,40
2017-07-21T18:12:51.646Z,40
2017-07-21T18:13:51.694Z,36
2017-07-21T18:14:51.755Z,36
2017-07-21T18:15:51.798Z,36
2017-07-21T18:16:51.865Z,36
2017-07-21T18:17:51.923Z,32
2017-07-21T18:18:51.971Z,36
2017-07-21T18:19:52.026Z,32
2017-07-21T18:20:52.088Z,32
2017-07-21T18:21:51.849Z,28
2017-07-21T18:22:52.197Z,32
2017-07-21T18:23:52.245Z,28
2017-07-21T18:24:52.308Z,24
2017-07-21T18:25:52.352Z,28
2017-07-21T18:26:52.414Z,24
2017-07-21T18:27:52.481Z,24
2017-07-21T18:28:52.525Z,24
2017-07-21T18:29:52.580Z,24
2017-07-21T18:30:52.329Z,20
2017-07-21T18:31:52.693Z,24
2017-07-21T18:32:52.753Z,20
2017-07-21T18:33:52.810Z,20
2017-07-21T18:34:52.865Z,20
2017-07-21T18:35:52.917Z,20
2017-07-21T18:36:52.971Z,16
2017-07-21T18:37:52.738Z,16
2017-07-21T18:38:53.079Z,12
2017-07-21T18:39:52.833Z,16
2017-07-21T18:40:53.189Z,16
2017-07-21T18:41:53.246Z,12
2017-07-21T18:42:53.302Z,12
2017-07-21T18:43:53.354Z,12
2017-07-21T18:44:53.419Z,16
2017-07-21T18:45:53.476Z,12
2017-07-21T18:46:53.520Z,12
2017-07-21T18:47:53.578Z,12
2017-07-21T18:48:53.643Z,8
2017-07-21T18:49:53.678Z,8
2017-07-21T18:50:53.737Z,8
2017-07-21T18:51:53.798Z,8
2017-07-21T18:52:53.861Z,8
2017-07-21T18:53:53.908Z,8
2017-07-21T18:54:53.965Z,8
2017-07-21T18:55:54.018Z,8
2017-07-21T18:56:54.066Z,4
2017-07-21T18:57:53.837Z,4
2017-07-21T18:58:54.195Z,4
2017-07-21T18:59:54.243Z,4
2017-07-21T19:00:54.299Z,8
2017-07-21T19:01:54.358Z,8
2017-07-21T19:02:54.402Z,4
2017-07-21T19:03:54.464Z,4
2017-07-21T19:04:54.521Z,4
2017-07-21T19:05:54.573Z,4
2017-07-21T19:06:54.328Z,4
2017-07-21T19:07:54.688Z,0
2017-07-21T19:08:54.747Z,0
2017-07-21T19:09:54.792Z,0
2017-07-21T19:10:54.857Z,0
2017-07-21T19:11:54.907Z,0
2017-07-21T19:12:54.968Z,0
2017-07-21T19:13:55.011Z,0
2017-07-21T19:14:55.069Z,0
2017-07-21T19:15:54.822Z,0
2017-07-21T19:16:55.188Z,0
2017-07-21T19:17:55.237Z,0
2017-07-21T19:18:55.295Z,0
2017-07-21T19:19:55.335Z,0
2017-07-21T19:20:55.402Z,0
2017-07-21T19:21:55.469Z,0
2017-07-21T19:22:55.504Z,0
2017-07-21T19:23:55.559Z,0
2017-07-21T19:24:55.318Z,0
2017-07-21T19:25:55.362Z,0
2017-07-21T19:26:55.718Z,0
2017-07-21T19:27:55.787Z,0
2017-07-21T19:28:55.532Z,0
2017-07-21T19:29:55.596Z,0
2017-07-21T19:30:55.637Z,0
2017-07-21T19:31:56.007Z,0
2017-07-21T19:32:56.060Z,0
2017-07-21T19:33:56.100Z,0
2017-07-21T19:34:56.158Z,0
2017-07-21T19:35:56.220Z,0
2017-07-21T19:36:56.273Z,0
2017-07-21T19:37:56.329Z,0
2017-07-21T19:38:56.378Z,0
2017-07-21T19:39:56.446Z,0
2017-07-21T19:40:56.505Z,0
2017-07-21T19:41:56.546Z,0
2017-07-21T19:42:56.300Z,0
2017-07-21T19:43:56.660Z,0
2017-07-21T19:44:56.707Z,0
2017-07-21T19:45:56.760Z,0
2017-07-21T19:46:56.525Z,0
2017-07-21T19:47:56.884Z,0
2017-07-21T19:48:56.326Z,0
2017-07-21T19:49:56.381Z,0
2017-07-21T19:50:57.039Z,0
2017-07-21T19:51:57.094Z,0
2017-07-21T19:52:57.158Z,0
2017-07-21T19:53:57.204Z,0
2017-07-21T19:54:56.952Z,0
2017-07-21T19:55:57.010Z,0
2017-07-21T19:56:57.076Z,0
2017-07-21T19:57:57.430Z,0
2017-07-21T19:58:57.171Z,0
2017-07-21T19:59:57.533Z,0
2017-07-21T20:00:57.597Z,0
2017-07-21T20:01:57.342Z,0
2017-07-21T20:02:57.709Z,0
2017-07-21T20:03:57.757Z,0
2017-07-21T20:04:57.815Z,0
2017-07-21T20:05:57.560Z,0
2017-07-21T20:06:57.930Z,0
2017-07-21T20:07:57.980Z,0
2017-07-21T20:08:58.031Z,0
2017-07-21T20:09:58.091Z,0
2017-07-21T20:10:58.144Z,0
2017-07-21T20:11:58.193Z,0
2017-07-21T20:12:57.953Z,0
2017-07-21T20:13:58.300Z,0
2017-07-21T20:14:58.057Z,0
2017-07-21T20:15:58.416Z,0
2017-07-21T20:16:58.463Z,0
2017-07-21T20:17:58.526Z,0
2017-07-21T20:18:58.577Z,0
2017-07-21T20:19:58.629Z,0
2017-07-21T20:20:58.694Z,0
2017-07-21T20:21:58.759Z,0
2017-07-21T20:22:58.806Z,0
2017-07-21T20:23:58.857Z,0
2017-07-21T20:24:58.606Z,0